Time,TemperatureF,DewpointF,PressureIn,WindDirection,WindDirectionDegrees,WindSpeedMPH,WindSpeedGustMPH,Humidity,HourlyPrecipIn,Conditions,Clouds,dailyrainin,SoftwareType,DateUTC
2013-05-23 00:01:00,48.0,41.0,-100.00,NNW,331,4.0,6.0,77,0.01,,,-99.99,,2013-05-23 00:01:00,
2013-05-23 00:11:00,48.0,41.0,-100.00,NNW,331,4.0,6.0,77,0.01,,,-99.99,,2013-05-23 00:11:00,
2013-05-23 00:21:00,48.0,41.0,-100.00,NNW,331,4.0,6.0,77,0.01,,,-99.99,,2013-05-23 00:21:00,
2013-05-23 00:30:00,47.0,41.0,-100.00,NNW,330,5.0,7.0,80,0.01,,,-99.99,,2013-05-23 00:30:00,
2013-05-23 00:52:00,47.0,41.0,-100.00,NNW,330,5.0,7.0,80,0.01,,,-99.99,,2013-05-23 00:52:00,
2013-05-23 01:01:00,47.0,41.0,-100.00,NNW,330,5.0,7.0,80,0.01,,,-99.99,,2013-05-23 01:01:00,
2013-05-23 01:11:00,47.0,41.0,-100.00,NNW,330,5.0,7.0,80,0.01,,,-99.99,,2013-05-23 01:11:00,
2013-05-23 01:21:00,47.0,41.0,-100.00,NNW,330,5.0,7.0,80,0.01,,,-99.99,,2013-05-23 01:21:00,
2013-05-23 01:30:00,47.0,41.0,-100.00,WNW,294,5.0,7.0,82,0.01,,,-99.99,,2013-05-23 01:30:00,
2013-05-23 01:52:00,47.0,41.0,-100.00,WNW,294,5.0,7.0,82,0.01,,,-99.99,,2013-05-23 01:52:00,
2013-05-23 02:01:00,47.0,41.0,-100.00,WNW,294,5.0,7.0,82,0.01,,,-99.99,,2013-05-23 02:01:00,
2013-05-23 02:11:00,47.0,41.0,-100.00,WNW,294,5.0,7.0,82,0.01,,,-99.99,,2013-05-23 02:11:00,
2013-05-23 02:21:00,47.0,41.0,-100.00,WNW,294,5.0,7.0,82,0.01,,,-99.99,,2013-05-23 02:21:00,
2013-05-23 02:30:00,46.0,42.0,-100.00,NW,305,5.0,7.0,84,0.00,,,-99.99,,2013-05-23 02:30:00,
2013-05-23 03:01:00,46.0,42.0,-100.00,NW,305,5.0,7.0,84,0.00,,,-99.99,,2013-05-23 03:01:00,
2013-05-23 03:11:00,46.0,42.0,-100.00,NW,305,5.0,7.0,84,0.00,,,-99.99,,2013-05-23 03:11:00,
2013-05-23 03:21:00,46.0,42.0,-100.00,NW,305,5.0,7.0,84,0.00,,,-99.99,,2013-05-23 03:21:00,
2013-05-23 03:30:00,46.0,42.0,-100.00,NW,312,7.0,8.0,84,0.00,,,-99.99,,2013-05-23 03:30:00,
2013-05-23 03:53:00,46.0,42.0,-100.00,NW,312,7.0,8.0,84,0.00,,,-99.99,,2013-05-23 03:53:00,
2013-05-23 04:02:00,46.0,42.0,-100.00,NW,312,7.0,8.0,84,0.00,,,-99.99,,2013-05-23 04:02:00,
2013-05-23 04:12:00,46.0,42.0,-100.00,NW,312,7.0,8.0,84,0.00,,,-99.99,,2013-05-23 04:12:00,
2013-05-23 04:22:00,46.0,42.0,-100.00,NW,312,7.0,8.0,84,0.00,,,-99.99,,2013-05-23 04:22:00,
2013-05-23 04:30:00,46.0,41.0,-100.00,NW,305,7.0,9.0,81,0.00,,,-99.99,,2013-05-23 04:30:00,
2013-05-23 04:52:00,46.0,41.0,-100.00,NW,305,7.0,9.0,81,0.00,,,-99.99,,2013-05-23 04:52:00,
2013-05-23 05:02:00,46.0,41.0,-100.00,NW,305,7.0,9.0,81,0.00,,,-99.99,,2013-05-23 05:02:00,
2013-05-23 05:11:00,46.0,41.0,-100.00,NW,305,7.0,9.0,81,0.00,,,-99.99,,2013-05-23 05:11:00,
2013-05-23 05:21:00,46.0,41.0,-100.00,NW,305,7.0,9.0,81,0.00,,,-99.99,,2013-05-23 05:21:00,
2013-05-23 05:30:00,46.0,40.0,-100.00,WNW,298,5.0,7.0,80,0.00,,,-99.99,,2013-05-23 05:30:00,
2013-05-23 05:52:00,46.0,40.0,-100.00,WNW,298,5.0,7.0,80,0.00,,,-99.99,,2013-05-23 05:52:00,
2013-05-23 06:02:00,46.0,40.0,-100.00,WNW,298,5.0,7.0,80,0.00,,,-99.99,,2013-05-23 06:02:00,
2013-05-23 06:12:00,46.0,40.0,-100.00,WNW,298,5.0,7.0,80,0.00,,,-99.99,,2013-05-23 06:12:00,
2013-05-23 06:21:00,46.0,40.0,-100.00,WNW,298,5.0,7.0,80,0.00,,,-99.99,,2013-05-23 06:21:00,
2013-05-23 06:30:00,46.0,41.0,-100.00,WSW,258,3.0,4.0,83,0.00,,,-99.99,,2013-05-23 06:30:00,
2013-05-23 06:52:00,46.0,41.0,-100.00,WSW,258,3.0,4.0,83,0.00,,,-99.99,,2013-05-23 06:52:00,
2013-05-23 07:02:00,46.0,41.0,-100.00,WSW,258,3.0,4.0,83,0.00,,,-99.99,,2013-05-23 07:02:00,
2013-05-23 07:11:00,46.0,41.0,-100.00,WSW,258,3.0,4.0,83,0.00,,,-99.99,,2013-05-23 07:11:00,
2013-05-23 07:21:00,46.0,41.0,-100.00,WSW,258,3.0,4.0,83,0.00,,,-99.99,,2013-05-23 07:21:00,
2013-05-23 07:30:00,46.0,41.0,-100.00,NW,320,3.0,5.0,82,0.00,,,-99.99,,2013-05-23 07:30:00,
2013-05-23 07:59:00,46.0,41.0,-100.00,NW,320,3.0,5.0,82,0.00,,,-99.99,,2013-05-23 07:59:00,
2013-05-23 08:11:00,46.0,41.0,-100.00,NW,320,3.0,5.0,82,0.00,,,-99.99,,2013-05-23 08:11:00,
2013-05-23 08:21:00,46.0,41.0,-100.00,NW,320,3.0,5.0,82,0.00,,,-99.99,,2013-05-23 08:21:00,
2013-05-23 08:30:00,45.0,41.0,-100.00,WNW,288,6.0,7.0,84,0.00,,,-99.99,,2013-05-23 08:30:00,
2013-05-23 08:52:00,45.0,41.0,-100.00,WNW,288,6.0,7.0,84,0.00,,,-99.99,,2013-05-23 08:52:00,
2013-05-23 09:01:00,45.0,41.0,-100.00,WNW,288,6.0,7.0,84,0.00,,,-99.99,,2013-05-23 09:01:00,
2013-05-23 09:11:00,45.0,41.0,-100.00,WNW,288,6.0,7.0,84,0.00,,,-99.99,,2013-05-23 09:11:00,
2013-05-23 09:21:00,45.0,41.0,-100.00,WNW,288,6.0,7.0,84,0.00,,,-99.99,,2013-05-23 09:21:00,
2013-05-23 09:30:00,45.0,41.0,-100.00,WNW,285,5.0,7.0,84,0.00,,,-99.99,,2013-05-23 09:30:00,
2013-05-23 09:53:00,45.0,41.0,-100.00,WNW,285,5.0,7.0,84,0.00,,,-99.99,,2013-05-23 09:53:00,
2013-05-23 10:02:00,45.0,41.0,-100.00,WNW,285,5.0,7.0,84,0.00,,,-99.99,,2013-05-23 10:02:00,
2013-05-23 10:12:00,45.0,41.0,-100.00,WNW,285,5.0,7.0,84,0.00,,,-99.99,,2013-05-23 10:12:00,
2013-05-23 10:22:00,45.0,41.0,-100.00,WNW,285,5.0,7.0,84,0.00,,,-99.99,,2013-05-23 10:22:00,
2013-05-23 10:30:00,44.0,41.0,-100.00,WNW,283,7.0,9.0,87,0.00,,,-99.99,,2013-05-23 10:30:00,
2013-05-23 10:52:00,44.0,41.0,-100.00,WNW,283,7.0,9.0,87,0.00,,,-99.99,,2013-05-23 10:52:00,
2013-05-23 11:02:00,44.0,41.0,-100.00,WNW,283,7.0,9.0,87,0.00,,,-99.99,,2013-05-23 11:02:00,
2013-05-23 11:11:00,44.0,41.0,-100.00,WNW,283,7.0,9.0,87,0.00,,,-99.99,,2013-05-23 11:11:00,
2013-05-23 11:21:00,44.0,41.0,-100.00,WNW,283,7.0,9.0,87,0.00,,,-99.99,,2013-05-23 11:21:00,
2013-05-23 11:30:00,44.0,41.0,-100.00,WNW,293,4.0,6.0,88,0.00,,,-99.99,,2013-05-23 11:30:00,
2013-05-23 11:52:00,44.0,41.0,-100.00,WNW,293,4.0,6.0,88,0.00,,,-99.99,,2013-05-23 11:52:00,
2013-05-23 12:01:00,44.0,41.0,-100.00,WNW,293,4.0,6.0,88,0.00,,,-99.99,,2013-05-23 12:01:00,
2013-05-23 12:11:00,44.0,41.0,-100.00,WNW,293,4.0,6.0,88,0.00,,,-99.99,,2013-05-23 12:11:00,
2013-05-23 12:21:00,44.0,41.0,-100.00,WNW,293,4.0,6.0,88,0.00,,,-99.99,,2013-05-23 12:21:00,
2013-05-23 12:30:00,44.0,41.0,-100.00,SE,142,2.0,3.0,87,0.00,,,-99.99,,2013-05-23 12:30:00,
2013-05-23 12:52:00,44.0,41.0,-100.00,SE,142,2.0,3.0,87,0.00,,,-99.99,,2013-05-23 12:52:00,
2013-05-23 13:01:00,44.0,41.0,-100.00,SE,142,2.0,3.0,87,0.00,,,-99.99,,2013-05-23 13:01:00,
2013-05-23 13:11:00,44.0,41.0,-100.00,SE,142,2.0,3.0,87,0.00,,,-99.99,,2013-05-23 13:11:00,
2013-05-23 13:21:00,44.0,41.0,-100.00,SE,142,2.0,3.0,87,0.00,,,-99.99,,2013-05-23 13:21:00,
2013-05-23 13:30:00,43.0,40.0,-100.00,SW,231,5.0,7.0,91,0.00,,,-99.99,,2013-05-23 13:30:00,
2013-05-23 13:52:00,43.0,40.0,-100.00,SW,231,5.0,7.0,91,0.00,,,-99.99,,2013-05-23 13:52:00,
2013-05-23 14:01:00,43.0,40.0,-100.00,SW,231,5.0,7.0,91,0.00,,,-99.99,,2013-05-23 14:01:00,
2013-05-23 14:11:00,43.0,40.0,-100.00,SW,231,5.0,7.0,91,0.00,,,-99.99,,2013-05-23 14:11:00,
2013-05-23 14:21:00,43.0,40.0,-100.00,SW,231,5.0,7.0,91,0.00,,,-99.99,,2013-05-23 14:21:00,
2013-05-23 14:30:00,44.0,41.0,-100.00,WSW,239,2.0,3.0,91,0.00,,,-99.99,,2013-05-23 14:30:00,
2013-05-23 14:52:00,44.0,41.0,-100.00,WSW,239,2.0,3.0,91,0.00,,,-99.99,,2013-05-23 14:52:00,
2013-05-23 15:01:00,44.0,41.0,-100.00,WSW,239,2.0,3.0,91,0.00,,,-99.99,,2013-05-23 15:01:00,
2013-05-23 15:11:00,44.0,41.0,-100.00,WSW,239,2.0,3.0,91,0.00,,,-99.99,,2013-05-23 15:11:00,
2013-05-23 15:21:00,44.0,41.0,-100.00,WSW,239,2.0,3.0,91,0.00,,,-99.99,,2013-05-23 15:21:00,
2013-05-23 15:30:00,44.0,41.0,-100.00,WSW,251,5.0,7.0,90,0.00,,,-99.99,,2013-05-23 15:30:00,
2013-05-23 15:53:00,44.0,41.0,-100.00,WSW,251,5.0,7.0,90,0.00,,,-99.99,,2013-05-23 15:53:00,
2013-05-23 16:03:00,44.0,41.0,-100.00,WSW,251,5.0,7.0,90,0.00,,,-99.99,,2013-05-23 16:03:00,
2013-05-23 16:12:00,44.0,41.0,-100.00,WSW,251,5.0,7.0,90,0.00,,,-99.99,,2013-05-23 16:12:00,
2013-05-23 16:22:00,44.0,41.0,-100.00,WSW,251,5.0,7.0,90,0.00,,,-99.99,,2013-05-23 16:22:00,
2013-05-23 16:30:00,43.0,40.0,-100.00,WSW,251,7.0,8.0,89,0.00,,,-99.99,,2013-05-23 16:30:00,
2013-05-23 16:52:00,43.0,40.0,-100.00,WSW,251,7.0,8.0,89,0.00,,,-99.99,,2013-05-23 16:52:00,
2013-05-23 17:03:00,43.0,40.0,-100.00,WSW,251,7.0,8.0,89,0.00,,,-99.99,,2013-05-23 17:03:00,
2013-05-23 17:11:00,43.0,40.0,-100.00,WSW,251,7.0,8.0,89,0.00,,,-99.99,,2013-05-23 17:11:00,
2013-05-23 17:22:00,43.0,40.0,-100.00,WSW,251,7.0,8.0,89,0.00,,,-99.99,,2013-05-23 17:22:00,
2013-05-23 17:30:00,44.0,40.0,-100.00,WSW,250,5.0,7.0,89,0.00,,,-99.99,,2013-05-23 17:30:00,
2013-05-23 17:52:00,44.0,40.0,-100.00,WSW,250,5.0,7.0,89,0.00,,,-99.99,,2013-05-23 17:52:00,
2013-05-23 18:01:00,44.0,40.0,-100.00,WSW,250,5.0,7.0,89,0.00,,,-99.99,,2013-05-23 18:01:00,
2013-05-23 18:11:00,44.0,40.0,-100.00,WSW,250,5.0,7.0,89,0.00,,,-99.99,,2013-05-23 18:11:00,
2013-05-23 18:21:00,44.0,40.0,-100.00,WSW,250,5.0,7.0,89,0.00,,,-99.99,,2013-05-23 18:21:00,
2013-05-23 18:30:00,45.0,42.0,-100.00,SW,232,4.0,6.0,88,0.00,,,-99.99,,2013-05-23 18:30:00,
2013-05-23 18:52:00,45.0,42.0,-100.00,SW,232,4.0,6.0,88,0.00,,,-99.99,,2013-05-23 18:52:00,
2013-05-23 19:01:00,45.0,42.0,-100.00,SW,232,4.0,6.0,88,0.00,,,-99.99,,2013-05-23 19:01:00,
2013-05-23 19:11:00,45.0,42.0,-100.00,SW,232,4.0,6.0,88,0.00,,,-99.99,,2013-05-23 19:11:00,
2013-05-23 19:21:00,45.0,42.0,-100.00,SW,232,4.0,6.0,88,0.00,,,-99.99,,2013-05-23 19:21:00,
2013-05-23 19:30:00,46.0,42.0,-100.00,WSW,251,2.0,4.0,86,0.00,,,-99.99,,2013-05-23 19:30:00,
2013-05-23 19:52:00,46.0,42.0,-100.00,WSW,251,2.0,4.0,86,0.00,,,-99.99,,2013-05-23 19:52:00,
2013-05-23 20:02:00,46.0,42.0,-100.00,WSW,251,2.0,4.0,86,0.00,,,-99.99,,2013-05-23 20:02:00,
2013-05-23 20:11:00,46.0,42.0,-100.00,WSW,251,2.0,4.0,86,0.00,,,-99.99,,2013-05-23 20:11:00,
2013-05-23 20:21:00,46.0,42.0,-100.00,WSW,251,2.0,4.0,86,0.00,,,-99.99,,2013-05-23 20:21:00,
2013-05-23 20:30:00,46.0,41.0,-100.00,West,261,6.0,9.0,83,0.00,,,-99.99,,2013-05-23 20:30:00,
2013-05-23 20:52:00,46.0,41.0,-100.00,West,261,6.0,9.0,83,0.00,,,-99.99,,2013-05-23 20:52:00,
2013-05-23 21:01:00,46.0,41.0,-100.00,West,261,6.0,9.0,83,0.00,,,-99.99,,2013-05-23 21:01:00,
2013-05-23 21:11:00,46.0,41.0,-100.00,West,261,6.0,9.0,83,0.00,,,-99.99,,2013-05-23 21:11:00,
2013-05-23 21:21:00,46.0,41.0,-100.00,West,261,6.0,9.0,83,0.00,,,-99.99,,2013-05-23 21:21:00,
2013-05-23 21:30:00,48.0,42.0,-100.00,West,259,6.0,8.0,81,0.00,,,-99.99,,2013-05-23 21:30:00,
2013-05-23 21:53:00,48.0,42.0,-100.00,West,259,6.0,8.0,81,0.00,,,-99.99,,2013-05-23 21:53:00,
2013-05-23 22:02:00,48.0,42.0,-100.00,West,259,6.0,8.0,81,0.00,,,-99.99,,2013-05-23 22:02:00,
2013-05-23 22:12:00,48.0,42.0,-100.00,West,259,6.0,8.0,81,0.00,,,-99.99,,2013-05-23 22:12:00,
2013-05-23 22:22:00,48.0,42.0,-100.00,West,259,6.0,8.0,81,0.00,,,-99.99,,2013-05-23 22:22:00,
2013-05-23 22:30:00,48.0,42.0,-100.00,WNW,289,9.0,11.0,80,0.00,,,-99.99,,2013-05-23 22:30:00,
2013-05-23 22:52:00,48.0,42.0,-100.00,WNW,289,9.0,11.0,80,0.00,,,-99.99,,2013-05-23 22:52:00,
2013-05-23 23:01:00,48.0,42.0,-100.00,WNW,289,9.0,11.0,80,0.00,,,-99.99,,2013-05-23 23:01:00,
2013-05-23 23:11:00,48.0,42.0,-100.00,WNW,289,9.0,11.0,80,0.00,,,-99.99,,2013-05-23 23:11:00,
2013-05-23 23:21:00,48.0,42.0,-100.00,WNW,289,9.0,11.0,80,0.00,,,-99.99,,2013-05-23 23:21:00,
2013-05-23 23:30:00,46.0,42.0,-100.00,West,259,8.0,10.0,85,0.00,,,-99.99,,2013-05-23 23:30:00,
2013-05-23 23:52:00,46.0,42.0,-100.00,West,259,8.0,10.0,85,0.00,,,-99.99,,2013-05-23 23:52:00,